Time;durP1;ratioP1;P1;durP2;ratioP2;P2;SDS_P1;SDS_P2;PMS_P1;PMS_P2;Temp;Humidity;BMP_temperature;BMP_pressure;BME280_temperature;BME280_humidity;BME280_pressure;Samples;Min_cycle;Max_cycle;Signal;HPM_P1;HPM_P2
2022/02/25 02:10:11;;;;;;;23.40;11.40;;;;;;;2.42;68.55;99723.02;31345;1318;3026525;-64
2022/02/25 02:12:41;;;;;;;22.10;13.00;;;;;;;2.76;67.63;99718.73;24985;1319;3026584;-61
2022/02/25 02:15:20;;;;;;;20.30;10.10;;;;;;;2.93;66.23;99717.11;24927;1321;3055677;-64
2022/02/25 02:25:33;;;;;;;21.50;12.40;;;;;;;2.88;66.77;99700.27;31629;1308;3026213;-59
2022/02/25 02:34:00;;;;;;;21.60;10.80;;;;;;;3.18;65.39;99695.34;31514;1315;3026567;-69
2022/02/25 02:36:30;;;;;;;20.70;12.20;;;;;;;3.44;65.14;99694.27;25126;1315;3026452;-70
2022/02/25 02:38:59;;;;;;;14.60;8.20;;;;;;;3.62;63.60;99692.25;25115;1315;3026978;-71
2022/02/25 02:44:04;;;;;;;19.30;9.60;;;;;;;3.13;64.85;99702.95;31360;1319;3026576;-61
2022/02/25 02:46:33;;;;;;;21.80;12.60;;;;;;;3.21;64.80;99697.34;24926;1322;3026805;-58
2022/02/25 02:49:02;;;;;;;18.00;9.20;;;;;;;3.31;64.14;99687.05;25005;1316;3026463;-60
2022/02/25 02:51:32;;;;;;;15.90;8.80;;;;;;;3.00;65.10;99678.17;25007;1316;3028054;-58
2022/02/25 02:54:00;;;;;;;22.80;9.50;;;;;;;2.72;65.89;99682.33;25028;1316;3051946;-59
2022/02/25 02:58:13;;;;;;;22.30;10.00;;;;;;;2.75;66.20;99674.83;31299;1319;3026397;-65
2022/02/25 03:00:44;;;;;;;24.70;12.10;;;;;;;2.86;66.02;99671.08;24921;1321;3026601;-60
2022/02/25 03:03:13;;;;;;;19.40;10.30;;;;;;;3.05;65.40;99670.59;24942;1321;3026784;-65
2022/02/25 03:05:43;;;;;;;17.20;9.00;;;;;;;2.82;66.17;99671.18;24893;1321;3026785;-63
2022/02/25 03:08:32;;;;;;;17.70;9.40;;;;;;;2.62;67.01;99669.25;24893;1321;3049982;-62
2022/02/25 03:11:02;;;;;;;16.30;8.70;;;;;;;2.49;67.59;99667.15;23540;1318;8469170;-69
2022/02/25 03:13:31;;;;;;;16.70;8.30;;;;;;;2.38;68.11;99660.88;24960;1318;3026628;-68
2022/02/25 03:16:00;;;;;;;18.70;9.30;;;;;;;2.38;68.26;99655.17;25088;1315;3054427;-65
2022/02/25 03:18:30;;;;;;;15.50;8.80;;;;;;;2.32;68.47;99651.99;25157;1314;3027066;-69
2022/02/25 03:20:58;;;;;;;14.80;8.20;;;;;;;2.35;67.92;99646.58;25057;1315;3026371;-70
2022/02/25 03:23:27;;;;;;;16.30;9.00;;;;;;;2.31;68.14;99646.14;25058;1315;3052826;-67
2022/02/25 03:25:56;;;;;;;18.40;9.00;;;;;;;2.22;68.66;99644.64;25098;1315;3026442;-68
2022/02/25 03:28:27;;;;;;;16.00;8.70;;;;;;;2.13;69.37;99641.73;25048;1315;3048737;-64
2022/02/25 03:30:57;;;;;;;16.80;8.80;;;;;;;2.14;68.96;99642.05;25053;1315;3027188;-72
2022/02/25 03:33:26;;;;;;;18.00;9.20;;;;;;;2.14;69.30;99641.90;25056;1315;3026557;-63
2022/02/25 03:35:55;;;;;;;16.40;8.40;;;;;;;2.18;68.90;99638.67;25081;1315;3026900;-69
2022/02/25 03:38:25;;;;;;;19.70;9.30;;;;;;;2.18;69.13;99634.52;25064;1315;3054684;-65
2022/02/25 03:52:09;;;;;;;19.00;10.40;;;;;;;3.03;67.36;99630.33;31570;1307;3026611;-67
2022/02/25 04:06:17;;;;;;;20.40;11.90;;;;;;;3.95;63.66;99625.23;31357;1319;3026293;-72
2022/02/25 04:08:44;;;;;;;18.50;11.10;;;;;;;3.74;64.36;99632.46;22873;1319;10389192;-67
2022/02/25 04:11:13;;;;;;;16.70;8.40;;;;;;;3.64;64.63;99630.84;25052;1316;3027244;-61
2022/02/25 04:13:42;;;;;;;15.00;8.80;;;;;;;3.21;65.93;99630.86;25116;1316;3055745;-73
2022/02/25 04:16:11;;;;;;;14.20;7.90;;;;;;;2.96;67.20;99631.90;25061;1316;3029460;-70
2022/02/25 04:21:24;;;;;;;14.90;8.40;;;;;;;2.86;67.30;99636.14;31530;1311;3028115;-62
2022/02/25 04:23:53;;;;;;;18.90;10.30;;;;;;;3.06;67.03;99636.48;25057;1313;3026352;-63
2022/02/25 04:26:23;;;;;;;13.70;7.40;;;;;;;3.21;66.31;99639.35;25120;1313;3026544;-64
2022/02/25 04:40:38;;;;;;;15.60;8.20;;;;;;;3.84;66.06;99628.03;31555;1309;3028343;-61
2022/02/25 04:55:24;;;;;;;18.40;8.10;;;;;;;3.65;65.81;99619.58;31380;1319;3026322;-68
2022/02/25 04:57:54;;;;;;;17.20;9.90;;;;;;;3.79;65.37;99620.89;25062;1316;3026703;-66
2022/02/25 05:13:02;;;;;;;15.30;8.70;;;;;;;2.82;68.52;99607.86;31274;1321;3026554;-61
2022/02/25 05:21:07;;;;;;;16.10;8.10;;;;;;;2.98;68.15;99589.45;24910;1321;3060441;-64
2022/02/25 05:23:36;;;;;;;16.50;9.10;;;;;;;2.78;68.74;99586.34;25010;1321;3026808;-63
2022/02/25 05:26:02;;;;;;;16.50;9.10;;;;;;;2.54;70.14;99586.79;22386;1318;13388126;-65
2022/02/25 05:28:31;;;;;;;14.90;8.40;;;;;;;2.81;68.95;99586.61;25007;1318;3026477;-62
2022/02/25 05:41:25;;;;;;;13.60;7.50;;;;;;;3.96;65.61;99575.30;31543;1309;3026265;-60
2022/02/25 05:43:54;;;;;;;15.40;9.50;;;;;;;3.88;65.60;99579.04;25097;1309;3026787;-59
2022/02/25 05:59:05;;;;;;;16.40;9.20;;;;;;;3.75;66.04;99553.09;31624;1306;3026478;-62
2022/02/25 06:01:34;;;;;;;16.50;9.90;;;;;;;4.06;65.41;99552.10;25189;1309;3026477;-63
2022/02/25 06:04:03;;;;;;;15.40;7.90;;;;;;;4.14;64.56;99549.77;25155;1306;3026707;-65
2022/02/25 06:06:32;;;;;;;12.80;7.00;;;;;;;3.83;65.51;99554.07;25149;1308;3026630;-62
2022/02/25 06:09:01;;;;;;;15.10;7.90;;;;;;;3.59;66.21;99552.36;25240;1309;3053955;-63
2022/02/25 06:11:28;;;;;;;12.30;7.30;;;;;;;3.27;67.71;99558.18;23911;1306;5456187;-60
2022/02/25 06:13:57;;;;;;;15.00;7.50;;;;;;;3.13;68.42;99556.13;25212;1305;3051514;-63
2022/02/25 06:16:26;;;;;;;15.70;7.80;;;;;;;3.01;68.82;99557.86;25236;1305;3027437;-64
2022/02/25 06:18:56;;;;;;;15.10;8.30;;;;;;;3.09;68.60;99567.52;25219;1305;3026302;-61
2022/02/25 06:21:25;;;;;;;13.10;7.40;;;;;;;2.89;69.42;99570.98;25233;1305;3029429;-61
2022/02/25 06:23:54;;;;;;;13.90;7.20;;;;;;;2.80;69.91;99588.70;25245;1304;3051479;-62
2022/02/25 06:26:23;;;;;;;16.00;7.80;;;;;;;2.81;69.81;99590.95;25245;1306;3026444;-63
2022/02/25 06:28:55;;;;;;;13.00;8.20;;;;;;;2.74;70.43;99592.69;25237;1305;3048982;-63
2022/02/25 06:31:24;;;;;;;14.90;8.30;;;;;;;2.75;70.35;99589.04;25296;1306;3026833;-64
2022/02/25 06:33:53;;;;;;;15.50;7.90;;;;;;;2.51;71.38;99584.80;25247;1305;3027363;-62
2022/02/25 06:36:22;;;;;;;12.60;7.00;;;;;;;2.54;71.36;99577.98;25293;1305;3047946;-64
2022/02/25 06:38:51;;;;;;;11.60;6.70;;;;;;;2.58;71.04;99569.41;25199;1306;3026202;-64
2022/02/25 06:41:20;;;;;;;14.20;7.10;;;;;;;2.66;70.63;99571.27;25220;1305;3067335;-62
2022/02/25 06:43:49;;;;;;;11.60;7.00;;;;;;;2.70;70.31;99571.87;25247;1305;3026693;-64
2022/02/25 06:46:18;;;;;;;14.00;6.70;;;;;;;2.73;70.94;99570.73;25241;1305;3050527;-63
2022/02/25 06:48:47;;;;;;;10.80;6.30;;;;;;;3.39;69.59;99568.04;25245;1304;3026565;-62
2022/02/25 06:51:16;;;;;;;11.70;6.60;;;;;;;4.00;67.57;99563.73;25257;1305;3054704;-64
2022/02/25 06:53:45;;;;;;;11.00;6.40;;;;;;;4.10;67.01;99565.34;25217;1305;3026465;-62
2022/02/25 06:56:14;;;;;;;11.40;6.20;;;;;;;4.04;67.23;99562.94;25260;1305;3050121;-63
2022/02/25 06:58:43;;;;;;;12.20;6.40;;;;;;;3.95;67.31;99561.65;25223;1306;3026905;-64
2022/02/25 07:01:12;;;;;;;11.20;6.60;;;;;;;3.77;67.67;99559.26;25229;1305;3056169;-64
2022/02/25 07:03:41;;;;;;;11.60;6.80;;;;;;;3.67;68.00;99550.58;25178;1306;3026386;-64
2022/02/25 07:06:10;;;;;;;11.90;6.70;;;;;;;3.48;68.78;99548.20;25273;1306;3053367;-63
2022/02/25 07:08:39;;;;;;;13.70;6.80;;;;;;;3.36;69.26;99552.20;25196;1305;3026652;-64
2022/02/25 07:11:08;;;;;;;10.30;6.90;;;;;;;3.31;69.46;99547.13;25248;1305;3051558;-64
2022/02/25 07:13:36;;;;;;;13.70;7.70;;;;;;;3.33;69.13;99543.63;25241;1305;3026304;-65
2022/02/25 07:16:05;;;;;;;11.60;6.80;;;;;;;3.32;68.66;99542.77;25244;1305;3049799;-64
2022/02/25 07:18:34;;;;;;;12.90;6.80;;;;;;;3.25;68.89;99540.73;25269;1305;3025981;-62
2022/02/25 07:21:03;;;;;;;11.90;6.60;;;;;;;3.18;69.30;99537.30;25196;1305;3067800;-63
2022/02/25 07:23:32;;;;;;;13.40;7.50;;;;;;;3.06;69.95;99534.19;25316;1305;3026648;-63
2022/02/25 07:26:01;;;;;;;11.80;7.60;;;;;;;2.99;70.45;99533.86;25274;1305;3050300;-62
2022/02/25 07:28:30;;;;;;;15.50;8.40;;;;;;;2.91;70.78;99533.91;25304;1305;3026560;-62
2022/02/25 07:30:59;;;;;;;14.10;8.50;;;;;;;2.89;71.21;99528.98;25220;1305;3051514;-62
2022/02/25 07:33:28;;;;;;;14.90;8.30;;;;;;;2.93;70.67;99521.91;25286;1305;3026033;-64
2022/02/25 07:35:57;;;;;;;13.40;7.40;;;;;;;2.84;71.71;99521.48;25247;1305;3050364;-64
2022/02/25 07:38:26;;;;;;;11.70;7.60;;;;;;;2.97;70.45;99516.60;25237;1305;3027327;-61
2022/02/25 07:40:55;;;;;;;16.10;7.60;;;;;;;2.95;70.97;99510.45;25277;1305;3058539;-62
2022/02/25 07:43:24;;;;;;;18.00;8.50;;;;;;;3.36;70.52;99512.19;25297;1305;3027122;-64
2022/02/25 07:45:53;;;;;;;13.60;7.50;;;;;;;4.14;69.10;99506.60;25299;1308;3050445;-64
2022/02/25 07:48:22;;;;;;;12.50;7.70;;;;;;;4.40;67.58;99500.19;25286;1306;3026571;-64
2022/02/25 07:50:52;;;;;;;13.00;7.80;;;;;;;4.26;67.26;99505.33;25286;1307;3051338;-62
2022/02/25 07:53:23;;;;;;;13.50;7.30;;;;;;;4.15;67.69;99498.75;25255;1306;3026611;-65
2022/02/25 07:55:54;;;;;;;13.10;7.50;;;;;;;3.93;67.91;99498.63;25186;1305;3026193;-62
2022/02/25 07:58:23;;;;;;;15.60;8.20;;;;;;;3.75;68.33;99497.29;25130;1308;3026196;-62
2022/02/25 08:00:52;;;;;;;12.10;7.90;;;;;;;3.69;68.29;99494.86;25207;1305;3026664;-62
2022/02/25 08:03:21;;;;;;;11.20;8.00;;;;;;;3.47;69.02;99494.04;25192;1305;3026361;-66
2022/02/25 08:05:49;;;;;;;12.60;7.40;;;;;;;3.42;69.33;99485.36;25205;1306;3049508;-64
2022/02/25 08:08:19;;;;;;;12.40;7.60;;;;;;;3.31;69.65;99486.02;25141;1306;3026572;-66
2022/02/25 08:10:49;;;;;;;13.90;7.70;;;;;;;3.25;70.22;99486.05;25187;1308;3057272;-63
2022/02/25 08:13:20;;;;;;;14.10;7.20;;;;;;;3.28;69.73;99485.79;25144;1308;3026674;-66
2022/02/25 08:15:49;;;;;;;13.30;7.40;;;;;;;3.20;70.31;99481.85;25156;1305;3052051;-65
2022/02/25 08:18:18;;;;;;;12.20;7.40;;;;;;;3.14;70.66;99486.17;25211;1305;3026876;-65
2022/02/25 08:20:47;;;;;;;10.50;7.20;;;;;;;3.20;70.68;99484.80;25185;1305;3051961;-67
2022/02/25 08:23:17;;;;;;;12.40;7.00;;;;;;;3.28;70.08;99485.77;25154;1305;3026655;-66
2022/02/25 08:25:46;;;;;;;12.00;6.80;;;;;;;3.08;70.71;99481.34;25193;1305;3026056;-66
2022/02/25 08:28:15;;;;;;;11.60;6.80;;;;;;;3.07;71.14;99482.41;25189;1305;3030411;-68
2022/02/25 08:30:46;;;;;;;11.40;6.70;;;;;;;3.00;71.21;99473.96;25162;1306;3053395;-65
2022/02/25 08:33:16;;;;;;;10.50;6.00;;;;;;;2.92;71.86;99472.83;25184;1305;3029236;-62
2022/02/25 08:35:45;;;;;;;12.10;6.50;;;;;;;3.04;71.33;99467.27;25130;1306;3028821;-65
2022/02/25 08:38:17;;;;;;;11.90;6.80;;;;;;;2.96;71.21;99472.19;25200;1306;3049748;-63
2022/02/25 08:40:46;;;;;;;14.60;7.20;;;;;;;3.00;71.59;99473.63;25265;1307;3026196;-64
2022/02/25 08:43:16;;;;;;;13.90;7.20;;;;;;;3.01;71.80;99475.15;25212;1306;3030084;-65
2022/02/25 08:45:45;;;;;;;10.00;5.70;;;;;;;3.56;70.71;99466.90;25188;1306;3026489;-64
2022/02/25 08:48:14;;;;;;;10.80;7.10;;;;;;;4.13;68.37;99456.71;25185;1306;3055554;-64
2022/02/25 08:50:43;;;;;;;13.80;7.80;;;;;;;4.20;68.05;99461.14;25178;1307;3026404;-65
2022/02/25 08:53:12;;;;;;;16.70;9.50;;;;;;;4.23;68.00;99455.86;25272;1305;3051895;-65
2022/02/25 08:55:41;;;;;;;15.60;9.50;;;;;;;4.02;68.61;99451.68;25322;1306;3026910;-65
2022/02/25 08:58:10;;;;;;;16.60;8.40;;;;;;;3.99;68.75;99445.23;25259;1306;3052211;-64
2022/02/25 09:00:39;;;;;;;13.80;7.20;;;;;;;3.91;68.85;99444.64;25230;1306;3027394;-63
2022/02/25 09:03:09;;;;;;;13.40;8.10;;;;;;;3.63;69.32;99443.13;25231;1306;3052333;-63
2022/02/25 09:05:38;;;;;;;14.00;7.50;;;;;;;3.73;69.23;99437.44;25227;1305;3026675;-63
2022/02/25 09:08:09;;;;;;;14.80;8.40;;;;;;;3.70;69.20;99434.57;25333;1306;3027603;-63
2022/02/25 09:10:42;;;;;;;14.20;7.90;;;;;;;3.59;69.69;99437.52;25225;1308;3028243;-65
2022/02/25 09:13:11;;;;;;;14.00;7.70;;;;;;;3.51;70.19;99436.39;25206;1308;3026673;-61
2022/02/25 09:15:40;;;;;;;10.90;6.90;;;;;;;3.63;69.53;99429.08;25264;1306;3027216;-65
2022/02/25 09:18:10;;;;;;;11.30;6.60;;;;;;;3.66;69.21;99424.30;25252;1306;3026570;-65
2022/02/25 09:20:40;;;;;;;11.80;7.70;;;;;;;3.54;69.82;99422.28;25232;1306;3049500;-63
2022/02/25 09:23:09;;;;;;;16.00;7.50;;;;;;;3.30;70.69;99421.80;25283;1306;3026428;-63
2022/02/25 09:25:38;;;;;;;13.00;7.50;;;;;;;3.31;70.98;99420.23;25255;1306;3028685;-65
2022/02/25 09:28:08;;;;;;;12.40;6.80;;;;;;;3.32;70.97;99419.52;25222;1306;3051525;-65
2022/02/25 09:30:38;;;;;;;10.80;6.90;;;;;;;3.29;70.88;99420.98;25246;1306;3027420;-64
2022/02/25 09:33:07;;;;;;;12.00;7.00;;;;;;;3.40;70.73;99417.88;25239;1306;3026301;-65
2022/02/25 09:35:36;;;;;;;10.70;6.40;;;;;;;3.34;70.86;99415.11;25254;1306;3051985;-64
2022/02/25 09:38:05;;;;;;;12.80;6.90;;;;;;;3.45;70.53;99409.05;25195;1306;3026501;-62
2022/02/25 09:40:34;;;;;;;10.90;5.40;;;;;;;3.98;69.63;99407.64;25229;1306;3055433;-62
2022/02/25 09:43:04;;;;;;;11.60;5.50;;;;;;;4.55;67.99;99407.87;25156;1306;3026838;-62
2022/02/25 09:45:35;;;;;;;11.60;6.10;;;;;;;4.68;66.90;99404.45;25234;1306;3056097;-64
2022/02/25 09:48:11;;;;;;;8.90;5.70;;;;;;;4.63;67.36;99398.90;25179;1306;3056298;-65
2022/02/25 09:50:42;;;;;;;11.90;5.90;;;;;;;4.51;67.57;99394.32;25256;1306;3026694;-63
2022/02/25 09:53:11;;;;;;;13.50;6.00;;;;;;;4.30;67.96;99379.83;25236;1306;3027187;-63
2022/02/25 09:55:40;;;;;;;9.70;5.70;;;;;;;4.21;68.28;99372.34;25236;1306;3027223;-64
2022/02/25 09:58:09;;;;;;;10.20;6.00;;;;;;;4.03;68.63;99366.57;25213;1306;3051607;-64
2022/02/25 10:00:39;;;;;;;11.80;6.40;;;;;;;4.09;68.80;99372.59;25190;1308;3026713;-63
2022/02/25 10:03:16;;;;;;;12.50;6.20;;;;;;;4.13;68.64;99378.53;25290;1304;3055854;-62
2022/02/25 10:05:46;;;;;;;9.20;5.40;;;;;;;4.06;69.15;99375.45;25190;1306;3051813;-62
2022/02/25 10:08:20;;;;;;;12.10;6.50;;;;;;;4.00;68.85;99370.33;25163;1305;3026440;-60
2022/02/25 10:10:56;;;;;;;11.40;6.50;;;;;;;3.79;69.94;99363.92;25148;1305;3050924;-64
2022/02/25 10:13:28;;;;;;;11.20;6.20;;;;;;;3.85;70.08;99365.63;26047;1305;3068160;-63
2022/02/25 10:15:59;;;;;;;10.20;6.00;;;;;;;3.89;69.89;99359.27;26055;1305;3026114;-63
2022/02/25 10:18:33;;;;;;;10.70;6.60;;;;;;;3.71;70.55;99354.15;26087;1305;3027205;-65
2022/02/25 10:21:05;;;;;;;12.80;7.20;;;;;;;3.60;71.29;99351.23;26047;1305;3052187;-63
2022/02/25 10:23:37;;;;;;;11.00;6.60;;;;;;;3.71;71.18;99342.39;25594;1305;3026256;-63
2022/02/25 10:26:11;;;;;;;13.50;8.10;;;;;;;3.71;70.93;99331.11;25162;1305;3026793;-63
2022/02/25 10:28:45;;;;;;;11.10;7.20;;;;;;;3.74;71.53;99337.79;25219;1306;3052112;-65
2022/02/25 10:31:17;;;;;;;11.00;6.70;;;;;;;3.90;70.54;99339.63;25191;1305;3054293;-63
2022/02/25 10:34:01;;;;;;;6.50;4.70;;;;;;;4.45;69.23;99329.67;25194;1305;3026769;-62
2022/02/25 10:36:41;;;;;;;9.40;5.20;;;;;;;5.06;66.45;99330.28;25173;1305;3048775;-64
2022/02/25 10:39:22;;;;;;;9.10;5.80;;;;;;;5.29;66.07;99322.91;25207;1305;3052369;-62
2022/02/25 10:42:11;;;;;;;10.20;6.70;;;;;;;5.07;66.21;99323.11;25195;1305;3052766;-63
2022/02/25 10:44:44;;;;;;;10.70;6.20;;;;;;;4.80;66.97;99323.84;25196;1305;3056026;-64
2022/02/25 10:47:16;;;;;;;11.70;5.90;;;;;;;4.65;67.35;99328.76;25120;1308;3026572;-62
2022/02/25 10:49:46;;;;;;;10.50;5.80;;;;;;;4.65;67.44;99325.81;25146;1306;3026936;-62
2022/02/25 10:52:27;;;;;;;8.80;5.90;;;;;;;4.42;67.71;99327.36;25145;1308;3026337;-63
2022/02/25 10:54:56;;;;;;;10.90;6.60;;;;;;;3.98;69.37;99320.98;25235;1306;3070001;-63
2022/02/25 10:57:26;;;;;;;11.20;6.60;;;;;;;3.85;70.09;99322.49;25258;1305;3027344;-65
2022/02/25 10:59:56;;;;;;;12.80;7.30;;;;;;;3.73;70.74;99328.10;25317;1305;3026937;-62
2022/02/25 11:02:29;;;;;;;14.00;7.80;;;;;;;3.78;70.83;99327.23;25253;1305;3026596;-64
2022/02/25 11:05:07;;;;;;;12.40;7.00;;;;;;;3.73;70.95;99323.27;25224;1305;3027411;-62
2022/02/25 11:07:41;;;;;;;11.30;7.00;;;;;;;3.69;70.85;99318.36;25111;1306;3051118;-64
2022/02/25 11:10:12;;;;;;;10.60;7.10;;;;;;;3.72;70.95;99319.11;25175;1308;3055251;-64
2022/02/25 11:12:42;;;;;;;12.20;7.60;;;;;;;3.72;70.92;99317.56;25174;1306;3026861;-64
2022/02/25 11:15:15;;;;;;;13.70;8.60;;;;;;;3.74;70.80;99311.95;25154;1306;3026970;-64
2022/02/25 11:17:45;;;;;;;13.40;8.40;;;;;;;3.74;70.54;99318.38;25183;1307;3026813;-65
2022/02/25 11:20:37;;;;;;;11.10;6.30;;;;;;;3.66;70.95;99315.52;25196;1306;3026814;-62
2022/02/25 11:23:08;;;;;;;12.10;6.70;;;;;;;4.29;70.19;99307.04;25219;1306;3054866;-65
2022/02/25 11:25:38;;;;;;;13.40;7.80;;;;;;;4.60;68.39;99305.34;25181;1306;3026465;-63
2022/02/25 11:28:07;;;;;;;15.50;9.20;;;;;;;4.65;68.49;99306.02;25309;1306;3030048;-63
2022/02/25 11:30:39;;;;;;;12.70;8.40;;;;;;;4.55;68.47;99307.95;25325;1306;3026832;-64
2022/02/25 11:33:14;;;;;;;18.30;9.40;;;;;;;4.50;68.86;99305.23;25231;1306;3056546;-63
2022/02/25 11:35:58;;;;;;;15.80;9.10;;;;;;;4.39;68.83;99301.80;25214;1305;3027092;-63
2022/02/25 11:38:44;;;;;;;17.00;9.60;;;;;;;4.26;69.00;99297.11;25204;1305;3053182;-64
2022/02/25 11:41:13;;;;;;;16.70;9.10;;;;;;;4.09;69.42;99297.02;25179;1309;3054316;-62
2022/02/25 11:43:47;;;;;;;15.40;8.60;;;;;;;3.99;69.78;99302.41;25212;1305;3026253;-62
2022/02/25 11:46:42;;;;;;;16.60;10.30;;;;;;;3.74;70.93;99307.81;25214;1305;3053107;-63
2022/02/25 11:49:11;;;;;;;16.20;8.80;;;;;;;3.57;71.58;99306.82;25188;1306;3054216;-65
2022/02/25 11:51:50;;;;;;;14.00;7.90;;;;;;;3.45;71.79;99306.04;25193;1306;3026790;-64
2022/02/25 11:54:24;;;;;;;11.10;7.50;;;;;;;3.33;72.22;99307.46;25193;1305;3051500;-65
2022/02/25 11:56:55;;;;;;;12.70;7.30;;;;;;;3.30;72.19;99300.81;25199;1305;3029834;-65
2022/02/25 11:59:31;;;;;;;10.60;6.40;;;;;;;3.24;72.72;99302.42;25206;1305;3026589;-65
2022/02/25 12:02:13;;;;;;;9.50;6.30;;;;;;;3.82;71.84;99296.95;25204;1307;3059205;-62
2022/02/25 12:05:09;;;;;;;11.10;6.30;;;;;;;4.39;70.08;99294.17;25203;1306;3050329;-62
2022/02/25 12:07:44;;;;;;;10.00;6.60;;;;;;;4.27;69.87;99285.94;25152;1305;3052764;-66
2022/02/25 12:10:16;;;;;;;11.10;6.70;;;;;;;4.20;70.10;99284.80;25299;1305;3051321;-64
2022/02/25 12:13:03;;;;;;;13.50;7.80;;;;;;;4.01;70.32;99280.48;25295;1305;3028769;-63
2022/02/25 12:15:35;;;;;;;12.40;8.10;;;;;;;3.46;72.46;99282.97;25209;1305;3049272;-64
2022/02/25 12:18:09;;;;;;;16.50;9.20;;;;;;;3.30;72.85;99276.57;25252;1305;3026434;-65
2022/02/25 12:20:44;;;;;;;12.40;7.50;;;;;;;2.99;73.89;99268.42;25217;1305;3051101;-63
2022/02/25 12:23:15;;;;;;;12.00;6.80;;;;;;;2.95;74.21;99265.29;25541;1305;3055346;-64
2022/02/25 12:25:50;;;;;;;12.50;7.60;;;;;;;2.72;74.84;99263.91;25229;1305;3026841;-65
2022/02/25 12:28:34;;;;;;;10.00;6.30;;;;;;;2.55;76.08;99264.98;25151;1305;3055209;-65
2022/02/25 12:31:17;;;;;;;9.00;5.80;;;;;;;3.33;74.23;99257.77;25231;1305;3051613;-65
2022/02/25 12:33:53;;;;;;;9.80;6.40;;;;;;;3.70;72.23;99261.15;25229;1306;3071602;-64
2022/02/25 12:36:28;;;;;;;11.60;7.00;;;;;;;3.51;72.40;99261.50;25182;1305;3051852;-64
2022/02/25 12:39:08;;;;;;;16.90;8.50;;;;;;;3.32;72.89;99258.69;25179;1305;3055191;-65
2022/02/25 12:41:43;;;;;;;15.40;7.20;;;;;;;3.25;73.12;99263.08;25197;1306;3055258;-65
2022/02/25 12:44:14;;;;;;;11.30;6.60;;;;;;;2.85;73.72;99272.35;25250;1306;3026650;-63
2022/02/25 12:46:57;;;;;;;11.00;7.00;;;;;;;2.58;75.06;99269.04;25151;1308;3026273;-63
2022/02/25 12:49:30;;;;;;;8.90;5.30;;;;;;;2.51;75.18;99266.47;25214;1305;3055192;-64
2022/02/25 12:52:02;;;;;;;8.90;5.30;;;;;;;2.42;75.24;99270.20;25185;1305;3026217;-66
2022/02/25 12:54:32;;;;;;;9.80;5.90;;;;;;;2.47;75.28;99273.50;25128;1308;3027087;-63
2022/02/25 12:57:04;;;;;;;7.90;5.30;;;;;;;2.49;75.31;99280.56;25214;1308;3026521;-65
2022/02/25 12:59:36;;;;;;;8.40;5.50;;;;;;;3.12;74.17;99274.40;25148;1307;3026207;-64
2022/02/25 13:02:12;;;;;;;8.80;6.20;;;;;;;3.50;72.48;99273.45;25163;1310;3052330;-65
2022/02/25 13:04:46;;;;;;;10.50;6.70;;;;;;;3.69;71.50;99278.86;25153;1305;3056063;-65
2022/02/25 13:07:16;;;;;;;21.40;10.80;;;;;;;3.57;71.61;99285.69;25151;1305;3051460;-64
2022/02/25 13:09:45;;;;;;;18.00;9.10;;;;;;;3.33;72.21;99296.38;25179;1308;3026959;-65
2022/02/25 13:12:16;;;;;;;15.00;8.90;;;;;;;3.14;72.62;99297.53;25192;1309;3027775;-65
2022/02/25 13:14:50;;;;;;;17.70;10.00;;;;;;;3.13;72.58;99298.80;25146;1307;3026528;-63
2022/02/25 13:17:20;;;;;;;21.40;12.10;;;;;;;2.98;72.84;99300.46;25137;1308;3049745;-65
2022/02/25 13:19:57;;;;;;;20.60;11.50;;;;;;;2.85;73.51;99295.01;25167;1308;3026885;-65
2022/02/25 13:22:30;;;;;;;23.60;13.30;;;;;;;2.67;73.97;99303.01;25203;1308;3051885;-63
2022/02/25 13:24:59;;;;;;;14.60;8.80;;;;;;;2.58;74.99;99299.63;25147;1307;3028590;-63
2022/02/25 13:27:34;;;;;;;12.60;7.30;;;;;;;3.10;73.69;99298.71;25267;1308;3027207;-65
2022/02/25 13:30:25;;;;;;;13.60;7.30;;;;;;;3.79;71.58;99298.63;25215;1311;3055753;-65
2022/02/25 13:33:05;;;;;;;11.30;5.60;;;;;;;4.05;70.43;99298.90;25202;1308;3056353;-63
2022/02/25 13:35:41;;;;;;;7.70;4.70;;;;;;;3.99;70.08;99295.64;25177;1307;3049936;-66
2022/02/25 13:38:20;;;;;;;8.50;5.30;;;;;;;3.77;70.04;99294.17;25195;1308;3053363;-63
2022/02/25 13:41:07;;;;;;;9.10;5.20;;;;;;;3.71;70.62;99293.19;25174;1309;3054459;-64
2022/02/25 13:43:37;;;;;;;6.70;4.60;;;;;;;3.68;70.86;99289.28;25179;1306;3067602;-64
2022/02/25 13:46:18;;;;;;;7.60;4.40;;;;;;;3.63;71.22;99284.11;25184;1308;3026276;-64
2022/02/25 13:54:40;;;;;;;6.40;3.60;;;;;;;3.62;71.43;99289.70;25219;1306;3054880;-64
2022/02/25 13:57:12;;;;;;;8.10;3.70;;;;;;;3.67;71.62;99290.73;25182;1306;3050284;-63
2022/02/25 13:59:46;;;;;;;6.40;2.80;;;;;;;3.68;71.81;99293.80;25272;1306;3026199;-64
2022/02/25 14:02:18;;;;;;;5.60;3.00;;;;;;;4.27;70.58;99293.21;25201;1306;3052253;-65
2022/02/25 14:04:57;;;;;;;5.90;3.60;;;;;;;4.98;68.72;99291.37;25204;1306;3026849;-63
2022/02/25 14:07:34;;;;;;;6.40;3.60;;;;;;;5.20;67.47;99292.56;25198;1306;3048868;-64
2022/02/25 14:10:26;;;;;;;12.70;3.90;;;;;;;4.96;67.77;99292.33;25184;1305;3052635;-65
2022/02/25 14:12:55;;;;;;;9.50;5.30;;;;;;;4.78;68.54;99288.52;25125;1307;3055576;-64
2022/02/25 14:15:25;;;;;;;10.10;6.20;;;;;;;4.64;68.68;99284.02;25233;1306;3026774;-62
2022/02/25 14:18:00;;;;;;;11.20;5.90;;;;;;;4.48;68.84;99283.77;25177;1305;3028320;-65
2022/02/25 14:20:32;;;;;;;10.80;5.10;;;;;;;4.34;69.06;99278.40;25235;1305;3055596;-64
2022/02/25 14:23:09;;;;;;;9.60;5.50;;;;;;;4.19;69.41;99275.17;25204;1306;3054434;-64
2022/02/25 14:25:39;;;;;;;9.30;5.40;;;;;;;4.05;69.92;99273.95;25177;1305;3026467;-65
2022/02/25 14:28:10;;;;;;;9.90;4.80;;;;;;;3.84;70.47;99275.73;25193;1306;3026786;-64
2022/02/25 14:30:51;;;;;;;11.90;5.50;;;;;;;3.76;70.80;99272.73;25219;1305;3027475;-65
2022/02/25 14:33:26;;;;;;;9.30;5.40;;;;;;;3.65;71.15;99273.99;25221;1305;3054259;-64
2022/02/25 14:36:10;;;;;;;;;;;;;;;3.61;71.28;99274.46;25196;1306;3056486;-64
2022/02/25 14:38:43;;;;;;;10.00;5.00;;;;;;;3.58;71.86;99275.11;25261;1306;3049990;-66
2022/02/25 14:41:13;;;;;;;10.80;6.40;;;;;;;3.57;71.60;99272.55;26062;1305;3026451;-65
2022/02/25 14:43:42;;;;;;;8.50;4.50;;;;;;;3.54;71.95;99275.27;26043;1305;3026621;-65
2022/02/25 14:46:13;;;;;;;9.20;4.70;;;;;;;4.13;71.36;99276.04;25920;1305;3026118;-65
2022/02/25 14:48:42;;;;;;;8.50;5.20;;;;;;;4.88;69.17;99272.00;25148;1306;3052793;-62
2022/02/25 14:51:11;;;;;;;5.80;3.60;;;;;;;4.92;68.25;99270.27;25490;1305;3027481;-66
2022/02/25 14:53:40;;;;;;;9.00;4.40;;;;;;;4.92;68.09;99267.64;25252;1307;3026509;-64
2022/02/25 14:56:09;;;;;;;11.70;4.50;;;;;;;4.66;68.31;99269.35;25193;1306;3052135;-64
2022/02/25 14:58:38;;;;;;;6.20;3.70;;;;;;;4.40;69.09;99270.20;25197;1306;3026646;-65
2022/02/25 15:01:07;;;;;;;7.30;3.70;;;;;;;4.32;69.30;99269.13;25139;1307;3027713;-65
2022/02/25 15:03:36;;;;;;;7.20;4.30;;;;;;;4.18;69.83;99271.54;25244;1307;3054562;-65
2022/02/25 15:06:05;;;;;;;9.40;4.80;;;;;;;4.06;70.23;99276.67;25184;1306;3026951;-63
2022/02/25 15:08:34;;;;;;;10.20;5.00;;;;;;;3.92;71.17;99275.98;25195;1305;3048716;-62
2022/02/25 15:11:04;;;;;;;10.70;6.10;;;;;;;3.92;71.01;99281.52;25182;1305;3027248;-63
2022/02/25 15:13:33;;;;;;;11.60;6.40;;;;;;;3.87;71.22;99281.68;25154;1305;3026729;-65
2022/02/25 15:16:04;;;;;;;12.50;6.30;;;;;;;3.83;71.52;99276.80;25188;1305;3027045;-64
2022/02/25 15:18:33;;;;;;;10.30;5.90;;;;;;;3.81;71.47;99277.55;25233;1307;3026430;-64
2022/02/25 15:21:02;;;;;;;9.20;4.80;;;;;;;3.83;71.37;99279.05;25155;1308;3028883;-62
2022/02/25 15:23:31;;;;;;;7.20;4.10;;;;;;;4.38;70.65;99286.41;25125;1309;3071180;-62
2022/02/25 15:26:00;;;;;;;7.40;3.90;;;;;;;5.08;68.70;99285.75;25209;1306;3026578;-64
2022/02/25 15:28:29;;;;;;;6.80;4.00;;;;;;;5.20;67.78;99290.29;25207;1305;3053387;-65
2022/02/25 15:31:28;;;;;;;8.20;4.80;;;;;;;4.96;67.83;99288.84;25247;1305;3026725;-65
2022/02/25 15:33:59;;;;;;;7.10;4.60;;;;;;;4.83;68.40;99287.46;25202;1306;3049458;-63
2022/02/25 15:36:29;;;;;;;9.10;5.40;;;;;;;4.62;68.74;99284.61;25173;1306;3026639;-65
2022/02/25 15:38:57;;;;;;;13.90;5.30;;;;;;;4.42;69.38;99289.52;25236;1305;3071141;-63
2022/02/25 15:41:29;;;;;;;11.80;6.20;;;;;;;4.28;69.92;99290.43;25166;1305;3027388;-62
2022/02/25 15:43:58;;;;;;;11.30;6.70;;;;;;;4.17;70.45;99291.52;25232;1305;3026420;-64